Sedgwick Reserve, California Weather observations

Data are for 10 minute period ending at time listed.
 Day   Time   Solar   Ave.   Ave.  Ave.  Vector  Max.   Baro.   Total    
  of    of     Rad.   Air    Rel.  Wind   Wind   Wind  Press.  Precip.   
Year   Day            Temp.  Hum.  Speed  Dir.   Gust                    
2016   (PST)  Kw/m2    F      %     mph   deg.    mph    mb.     in.     
-------------------------------------------------------------------------
 242   12:30   0.87   87.3    36    7.6   179    12.1   972.8    0.00 
 242   12:40   0.87   88.3    35    6.6   166    11.0   972.7    0.00 
 242   12:50   0.86   90.1    33    6.7   202    12.6   972.6    0.00 
 242   13:00   0.85   91.6    31    5.9   260    10.6   972.5    0.00 
 242   13:10   0.84   92.8    30    5.8   269    12.3   972.4    0.00 
 242   13:20   0.83   93.2    30    4.4   246    11.4   972.2    0.00 
 242   13:30   0.81   92.8    29    7.6   247    11.9   971.9    0.00 
 242   13:40   0.80   95.3    25    6.3   288    11.1   971.7    0.00 
 242   13:50   0.78   93.8    26    8.4   268    14.5   971.5    0.00 
 242   14:00   0.77   93.9    26    8.6   265    13.2   971.3    0.00 
 242   14:10   0.74   95.1    25    7.9   280    14.6   971.2    0.00 
 242   14:20   0.72   94.3    26    9.1   267    15.9   971.1    0.00 
 242   14:30   0.70   93.8    26   10.2   273    16.2   971.0    0.00 
 242   14:40   0.68   94.0    25   10.7   290    15.9   970.9    0.00 
 242   14:50   0.66   95.7    24    7.3   309    14.6   970.9    0.00 
 242   15:00   0.63   94.1    25   10.3   288    16.7   970.8    0.00 
 242   15:10   0.60   93.5    26   11.3   267    18.5   970.7    0.00 
 242   15:20   0.57   93.0    26   12.9   278    19.7   970.7    0.00 
 242   15:30   0.54   93.2    27   10.5   279    18.4   970.6    0.00 
 242   15:40   0.51   93.1    29    9.0   260    14.7   970.7    0.00 
 242   15:50   0.47   92.2    30    9.3   263    14.8   970.7    0.00 
 242   16:00   0.45   91.3    31   10.1   260    15.6   970.7    0.00 
 242   16:10   0.41   90.8    31   11.1   272    15.9   970.7    0.00 
 242   16:20   0.38   89.6    32   11.7   266    17.0   970.7    0.00 
 242   16:30   0.34   88.6    33   10.5   267    15.0   970.8    0.00 
 242   16:40   0.31   87.5    34   11.3   282    16.8   971.0    0.00 
 242   16:50   0.28   86.1    35   11.8   271    15.9   971.2    0.00 
 242   17:00   0.24   84.4    37   10.9   267    17.2   971.4    0.00 
 242   17:10   0.20   83.8    38    8.3   255    13.7   971.5    0.00 
 242   17:20   0.17   83.2    39    8.6   261    12.6   971.4    0.00 
 242   17:30   0.14   82.2    40    9.4   275    14.1   971.5    0.00 
 242   17:40   0.11   81.3    41    8.4   275    13.2   971.6    0.00 
 242   17:50   0.09   80.3    42    7.2   276    10.8   971.6    0.00 
 242   18:00   0.07   80.1    42    4.8   264     9.0   971.6    0.00 
 242   18:10   0.04   79.8    42    3.9   262     6.7   971.7    0.00 
 242   18:20   0.01   78.5    42    4.2   251     6.3   971.8    0.00 
 242   18:30   0.00   76.3    47    4.0   128     6.7   971.9    0.00 
 242   18:40   0.00   73.4    52    4.0   111     6.4   972.0    0.00 
 242   18:50   0.00   72.3    54    3.4   133     6.2   972.0    0.00 
 242   19:00   0.00   71.2    56    3.4   127     6.4   972.0    0.00 
 242   19:10   0.00   70.2    58    3.2   123     5.1   972.1    0.00 
 242   19:20   0.00   69.7    59    2.9   144     4.8   972.1    0.00 
 242   19:30   0.00   69.3    59    1.0   202     2.9   972.1    0.00 
 242   19:40   0.00   68.8    60    2.0   354     3.4   972.2    0.00 
 242   19:50   0.00   67.0    62    4.1     7     4.8   972.3    0.00 
 242   20:00   0.00   66.8    62    2.2   357     4.0   972.3    0.00 
 242   20:10   0.00   66.6    62    0.3   300     1.5   972.4    0.00 
 242   20:20   0.00   66.2    62    0.0     0     0.0   972.4    0.00 
 242   20:30   0.00   65.6    62    0.9   244     2.6   972.4    0.00 
 242   20:40   0.00   64.9    63    2.1   299     3.1   972.5    0.00 
 242   20:50   0.00   63.5    65    1.5    37     2.3   972.4    0.00 
 242   21:00   0.00   63.6    66    1.0    96     2.0   972.4    0.00 
 242   21:10   0.00   62.8    66    1.8   144     2.5   972.4    0.00 
 242   21:20   0.00   62.3    68    0.8    64     2.0   972.4    0.00 
 242   21:30   0.00   61.5    70    1.1    34     1.9   972.3    0.00 
 242   21:40   0.00   60.9    69    0.7   317     1.5   972.3    0.00 
 242   21:50   0.00   60.4    71    0.4   290     1.3   972.2    0.00 
 242   22:00   0.00   60.1    70    0.4   237     2.2   972.0    0.00 
 242   22:10   0.00   59.6    71    0.8   288     2.4   971.9    0.00 
 242   22:20   0.00   59.1    71    0.6   212     1.8   971.8    0.00 
 242   22:30   0.00   58.7    72    1.0    70     2.9   971.8    0.00 
 242   22:40   0.00   58.5    73    0.7    58     2.2   971.7    0.00 
 242   22:50   0.00   58.2    74    1.4    15     3.4   971.6    0.00 
 242   23:00   0.00   57.7    75    1.4   277     3.0   971.5    0.00 
 242   23:10   0.00   57.9    74    0.8   236     2.2   971.5    0.00 
 242   23:20   0.00   57.6    75    0.5   238     2.8   971.5    0.00 
 242   23:30   0.00   56.9    76    1.9   359     3.7   971.4    0.00 
 242   23:40   0.00   56.5    77    3.9     0     6.0   971.3    0.00 
 242   23:50   0.00   56.9    77    2.0   272     3.5   971.2    0.00 
 243    0:00   0.00   57.0    77    1.9   304     2.9   971.1    0.00 
 243    0:10   0.00   56.6    77    1.9   344     4.5   971.1    0.00 
 243    0:20   0.00   56.7    79    2.4   301     4.5   971.1    0.00 
 243    0:30   0.00   56.6    78    1.0   308     3.7   971.0    0.00 
 243    0:40   0.00   56.3    79    1.3   256     3.2   970.9    0.00 
 243    0:50   0.00   56.2    80    1.2   238     4.2   970.9    0.00 
 243    1:00   0.00   55.9    81    1.4    70     2.9   970.8    0.00 
 243    1:10   0.00   56.0    81    1.3    33     2.2   970.8    0.00 
 243    1:20   0.00   55.7    81    1.7   290     3.0   970.7    0.00 
 243    1:30   0.00   56.5    81    1.8   348     3.7   970.7    0.00 
 243    1:40   0.00   56.8    80    0.8   352     3.1   970.7    0.00 
 243    1:50   0.00   56.9    80    0.5   274     1.4   970.6    0.00 
 243    2:00   0.00   56.5    80    0.5   338     1.8   970.5    0.00 
 243    2:10   0.00   56.1    81    0.4   345     1.5   970.4    0.00 
 243    2:20   0.00   55.7    81    1.3    11     3.6   970.3    0.00 
 243    2:30   0.00   56.0    80    0.9     6     3.1   970.3    0.00 
 243    2:40   0.00   56.0    81    0.9   266     2.0   970.3    0.00 
 243    2:50   0.00   56.0    81    0.4    13     2.9   970.2    0.00 
 243    3:00   0.00   55.3    81    0.2    74     2.3   970.2    0.00 
 243    3:10   0.00   54.7    81    0.8   169     2.5   970.2    0.00 
 243    3:20   0.00   54.5    83    0.8   140     2.6   970.1    0.00 
 243    3:30   0.00   54.1    82    1.9     6     4.3   970.0    0.00 
 243    3:40   0.00   53.6    83    2.7   310     4.7   970.1    0.00 
 243    3:50   0.00   54.1    82    1.2    16     3.4   970.0    0.00 
 243    4:00   0.00   54.1    80    0.8   190     2.3   970.0    0.00 
 243    4:10   0.00   54.2    82    1.9   236     2.8   969.9    0.00 
 243    4:20   0.00   54.7    80    2.4   272     3.6   969.9    0.00 
 243    4:30   0.00   53.7    80    3.4   359     4.7   969.9    0.00 
 243    4:40   0.00   53.6    78    2.2    16     3.1   969.9    0.00 
 243    4:50   0.00   53.2    79    2.1   295     3.5   969.9    0.00 
 243    5:00   0.00   53.8    79    1.3   277     3.5   970.0    0.00 
 243    5:10   0.00   53.1    80    1.5   320     3.7   970.1    0.00 
 243    5:20   0.00   53.5    77    3.1    21     4.2   970.1    0.00 
 243    5:30   0.00   53.4    79    0.7   235     3.0   970.2    0.00 
 243    5:40   0.00   54.0    79    2.2   252     3.1   970.3    0.00 
 243    5:50   0.01   53.1    79    0.5   240     2.0   970.3    0.00 
 243    6:00   0.01   53.4    79    0.0     0     0.0   970.4    0.00 
 243    6:10   0.05   53.9    78    1.1   270     2.1   970.5    0.00 
 243    6:20   0.08   54.0    75    4.0     4     5.6   970.5    0.00 
 243    6:30   0.10   56.2    72    3.2     2     5.5   970.5    0.00 
 243    6:40   0.13   58.8    66    0.8   266     1.8   970.5    0.00 
 243    6:50   0.17   59.2    66    1.8   241     2.9   970.6    0.00 
 243    7:00   0.20   61.9    62    1.0   132     2.0   970.7    0.00 
 243    7:10   0.23   63.9    58    1.5   117     2.6   970.8    0.00 
 243    7:20   0.27   65.3    60    2.1   127     3.6   970.9    0.00 
 243    7:30   0.30   66.4    60    2.0    99     3.4   971.0    0.00 
 243    7:40   0.33   68.6    56    2.4    93     4.2   971.3    0.00 
 243    7:50   0.36   68.6    56    2.6   140     4.2   971.3    0.00 
 243    8:00   0.40   69.1    56    2.9   147     4.7   971.3    0.00 
 243    8:10   0.43   71.3    52    2.1   116     3.3   971.3    0.00 
 243    8:20   0.47   74.3    48    2.6    94     4.5   971.2    0.00 
 243    8:30   0.50   74.5    48    4.5   134     8.0   971.2    0.00 
 243    8:40   0.53   73.5    49    5.9   125     9.1   971.3    0.00 
 243    8:50   0.56   74.9    47    3.6   108     7.2   971.3    0.00 
 243    9:00   0.59   77.8    42    2.5   134     4.5   971.3    0.00 
 243    9:10   0.62   79.8    37    2.5   150     5.0   971.2    0.00 
 243    9:20   0.64   81.9    34    1.5   157     3.9   971.1    0.00 
 243    9:30   0.67   84.3    32    1.1   226     3.4   971.0    0.00 
 243    9:40   0.69   85.8    29    2.0   190     4.2   971.0    0.00 
 243    9:50   0.72   87.7    28    2.2   147     5.0   970.8    0.00 
 243   10:00   0.74   88.4    30    4.9   148     8.3   970.7    0.00 
 243   10:10   0.76   88.4    30    5.0   169     8.5   970.6    0.00 
 243   10:20   0.77   87.8    30    4.8   216     8.1   970.6    0.00 
 243   10:30   0.79   88.9    29    4.1   196     7.7   970.5    0.00 
 243   10:40   0.81   89.1    29    5.4   194    10.2   970.4    0.00 
 243   10:50   0.82   90.9    27    5.0   199     9.0   970.3    0.00 
 243   11:00   0.83   91.0    26    7.1   208    13.0   970.2    0.00 
 243   11:10   0.84   91.1    26    7.5   242    11.3   970.0    0.00 
 243   11:20   0.82   91.3    26    7.6   265    11.7   970.0    0.00 
 243   11:30   0.86   91.6    27    8.7   260    14.2   969.8    0.00 
 243   11:40   0.87   92.8    27    7.9   230    13.4   969.6    0.00 
 243   11:50   0.87   92.6    27    9.3   240    15.9   969.5    0.00 
 243   12:00   0.87   92.8    27   10.0   245    14.8   969.5    0.00 
 243   12:10   0.87   93.3    28    9.0   258    14.2   969.4    0.00 
 243   12:20   0.87   95.1    26    6.2   270    14.2   969.4    0.00 

Return to Sedgwick Reserve graphs page.


Western Regional Climate Center,wrcc@dri.edu